createdAt,value
2016-06-20T17:02:19.157Z,140.63
2016-06-20T17:02:27.887Z,140.63
2016-06-20T17:02:37.893Z,140.63
2016-06-20T17:02:48.515Z,140.63
2016-06-20T17:02:58.527Z,140.63
2016-06-20T17:03:07.923Z,135
2016-06-20T17:03:18.529Z,135
2016-06-20T17:03:27.902Z,135
2016-06-20T17:03:37.922Z,135
2016-06-20T17:03:48.554Z,135
2016-06-20T17:03:57.951Z,129.38
2016-06-20T17:04:08.553Z,129.38
2016-06-20T17:04:18.574Z,129.38
2016-06-20T17:04:28.586Z,123.75
2016-06-20T17:04:38.595Z,123.75
2016-06-20T17:04:48.603Z,123.75
2016-06-20T17:04:57.333Z,123.75
2016-06-20T17:05:07.958Z,118.13
2016-06-20T17:05:17.959Z,118.13
2016-06-20T17:05:27.962Z,112.5
2016-06-20T17:05:37.993Z,112.5
2016-06-20T17:05:47.993Z,112.5
2016-06-20T17:05:57.995Z,112.5
2016-06-20T17:06:08.644Z,106.88
2016-06-20T17:06:18.648Z,106.88
2016-06-20T17:06:27.366Z,106.88
2016-06-20T17:06:38.020Z,101.25
2016-06-20T17:06:48.043Z,106.88
2016-06-20T17:06:57.396Z,106.88
2016-06-20T17:07:08.668Z,106.88
2016-06-20T17:07:18.672Z,106.88
2016-06-20T17:07:28.041Z,106.88
2016-06-20T17:07:38.682Z,106.88
2016-06-20T17:07:48.049Z,106.88
2016-06-20T17:07:58.704Z,106.88
2016-06-20T17:08:08.699Z,106.88
2016-06-20T17:08:18.716Z,106.88
2016-06-20T17:08:28.724Z,106.88
2016-06-20T17:08:38.730Z,101.25
2016-06-20T17:08:48.081Z,106.88
2016-06-20T17:08:58.742Z,106.88
2016-06-20T17:09:08.727Z,106.88
2016-06-20T17:09:18.758Z,106.88
2016-06-20T17:09:28.104Z,106.88
2016-06-20T17:09:38.119Z,106.88
2016-06-20T17:09:48.130Z,106.88
2016-06-20T17:09:58.771Z,112.5
2016-06-20T17:10:08.122Z,112.5
2016-06-20T17:10:18.770Z,112.5
2016-06-20T17:10:28.175Z,112.5
2016-06-20T17:10:38.808Z,112.5
2016-06-20T17:10:48.167Z,112.5
2016-06-20T17:10:58.802Z,112.5
2016-06-20T17:11:08.251Z,112.5
2016-06-20T17:11:18.815Z,112.5
2016-06-20T17:11:28.840Z,118.13
2016-06-20T17:11:38.849Z,118.13
2016-06-20T17:11:48.842Z,118.13
2016-06-20T17:11:58.222Z,118.13
2016-06-20T17:12:08.202Z,123.75
2016-06-20T17:12:18.833Z,123.75
2016-06-20T17:12:28.855Z,123.75
2016-06-20T17:12:38.858Z,123.75
2016-06-20T17:12:48.231Z,123.75
2016-06-20T17:12:58.244Z,123.75
2016-06-20T17:13:08.869Z,123.75
2016-06-20T17:13:18.227Z,129.38
2016-06-20T17:13:28.869Z,129.38
2016-06-20T17:13:38.888Z,129.38
2016-06-20T17:13:48.272Z,129.38
2016-06-20T17:13:58.893Z,135
2016-06-20T17:14:08.902Z,135
2016-06-20T17:14:18.910Z,140.63
2016-06-20T17:14:28.913Z,140.63
2016-06-20T17:14:38.937Z,146.25
2016-06-20T17:14:48.302Z,146.25
2016-06-20T17:14:58.941Z,146.25
2016-06-20T17:15:08.294Z,146.25
2016-06-20T17:15:18.934Z,146.25
2016-06-20T17:15:28.954Z,146.25
2016-06-20T17:15:38.980Z,146.25
2016-06-20T17:15:48.970Z,140.63
2016-06-20T17:15:58.339Z,140.63
2016-06-20T17:16:08.337Z,140.63
2016-06-20T17:16:18.977Z,135
2016-06-20T17:16:28.347Z,135
2016-06-20T17:16:38.989Z,135
2016-06-20T17:16:49.001Z,135
2016-06-20T17:16:58.375Z,135
2016-06-20T17:17:08.368Z,135
2016-06-20T17:17:18.359Z,129.38
2016-06-20T17:17:28.383Z,129.38
2016-06-20T17:17:37.754Z,129.38
2016-06-20T17:17:48.393Z,129.38
2016-06-20T17:17:58.410Z,129.38
2016-06-20T17:18:08.430Z,129.38
2016-06-20T17:18:17.770Z,129.38
2016-06-20T17:18:29.054Z,129.38
2016-06-20T17:18:38.420Z,129.38
2016-06-20T17:18:49.069Z,129.38
2016-06-20T17:18:58.442Z,129.38
2016-06-20T17:19:09.064Z,129.38
2016-06-20T17:19:18.431Z,123.75
2016-06-20T17:19:29.079Z,123.75
2016-06-20T17:19:39.092Z,123.75
2016-06-20T17:19:49.086Z,123.75
2016-06-20T17:19:58.456Z,118.13
2016-06-20T17:20:08.459Z,118.13
2016-06-20T17:20:17.855Z,118.13
2016-06-20T17:20:29.141Z,112.5
2016-06-20T17:20:38.488Z,112.5
2016-06-20T17:20:49.146Z,112.5
2016-06-20T17:20:59.120Z,112.5
2016-06-20T17:21:09.141Z,112.5
2016-06-20T17:21:19.183Z,106.88
2016-06-20T17:21:29.150Z,106.88
2016-06-20T17:21:38.526Z,101.25
2016-06-20T17:21:47.895Z,101.25
2016-06-20T17:21:58.535Z,95.63
2016-06-20T17:22:09.187Z,95.63
2016-06-20T17:22:19.184Z,90
2016-06-20T17:22:28.547Z,90
2016-06-20T17:22:39.186Z,90
2016-06-20T17:22:48.561Z,90
2016-06-20T17:22:59.208Z,90
2016-06-20T17:23:09.208Z,90
2016-06-20T17:23:19.227Z,90
2016-06-20T17:23:29.213Z,84.38
2016-06-20T17:23:38.582Z,84.38
2016-06-20T17:23:49.235Z,84.38
2016-06-20T17:23:57.975Z,84.38
2016-06-20T17:24:08.609Z,84.38
2016-06-20T17:24:19.265Z,84.38
2016-06-20T17:24:29.246Z,84.38
2016-06-20T17:24:39.262Z,84.38
2016-06-20T17:24:49.283Z,84.38
2016-06-20T17:24:59.256Z,84.38
2016-06-20T17:25:08.641Z,84.38
2016-06-20T17:25:19.289Z,84.38
2016-06-20T17:25:29.282Z,84.38
2016-06-20T17:25:39.304Z,90
2016-06-20T17:25:48.655Z,90
2016-06-20T17:25:58.695Z,90
2016-06-20T17:26:09.317Z,84.38
2016-06-20T17:26:19.313Z,84.38
2016-06-20T17:26:29.336Z,84.38
2016-06-20T17:26:39.334Z,90
2016-06-20T17:26:49.332Z,90
2016-06-20T17:26:59.346Z,90
2016-06-20T17:27:09.346Z,90
2016-06-20T17:27:18.716Z,90
2016-06-20T17:27:29.347Z,90
2016-06-20T17:27:39.362Z,84.38
2016-06-20T17:27:48.717Z,84.38
2016-06-20T17:27:58.739Z,84.38
2016-06-20T17:28:09.369Z,78.75
2016-06-20T17:28:19.390Z,78.75
2016-06-20T17:28:28.760Z,78.75
2016-06-20T17:28:39.393Z,78.75
2016-06-20T17:28:48.771Z,84.38
2016-06-20T17:28:59.432Z,84.38
2016-06-20T17:29:08.781Z,84.38
2016-06-20T17:29:19.812Z,84.38
2016-06-20T17:29:29.422Z,84.38
2016-06-20T17:29:38.827Z,84.38
2016-06-20T17:29:49.497Z,84.38
2016-06-20T17:29:58.805Z,90
2016-06-20T17:30:09.479Z,90
2016-06-20T17:30:19.437Z,90
2016-06-20T17:30:28.824Z,90
2016-06-20T17:30:39.471Z,90
2016-06-20T17:30:48.846Z,90
2016-06-20T17:30:59.477Z,95.63
2016-06-20T17:31:09.472Z,95.63
2016-06-20T17:31:18.851Z,95.63
2016-06-20T17:31:29.611Z,101.25
2016-06-20T17:31:39.500Z,101.25
2016-06-20T17:31:48.872Z,101.25
2016-06-20T17:31:59.505Z,101.25
2016-06-20T17:32:08.286Z,101.25
2016-06-20T17:32:19.521Z,101.25
2016-06-20T17:32:29.533Z,95.63
2016-06-20T17:32:39.549Z,95.63
2016-06-20T17:32:48.893Z,90
2016-06-20T17:32:58.902Z,90
2016-06-20T17:33:09.538Z,90
2016-06-20T17:33:19.543Z,95.63
2016-06-20T17:33:29.936Z,95.63
2016-06-20T17:33:38.913Z,95.63
2016-06-20T17:33:48.923Z,95.63
2016-06-20T17:33:58.947Z,101.25
2016-06-20T17:34:09.608Z,101.25
2016-06-20T17:34:19.589Z,101.25
2016-06-20T17:34:28.948Z,101.25
2016-06-20T17:34:38.943Z,101.25
2016-06-20T17:34:48.955Z,106.88
2016-06-20T17:34:58.985Z,106.88
2016-06-20T17:35:08.996Z,106.88
2016-06-20T17:35:18.986Z,106.88
2016-06-20T17:35:29.625Z,112.5
2016-06-20T17:35:39.685Z,112.5
2016-06-20T17:35:49.007Z,112.5
2016-06-20T17:35:58.370Z,112.5
2016-06-20T17:36:09.022Z,112.5
2016-06-20T17:36:19.639Z,118.13
2016-06-20T17:36:29.067Z,118.13
2016-06-20T17:36:39.647Z,123.75
2016-06-20T17:36:49.659Z,129.38
2016-06-20T17:36:59.664Z,129.38
2016-06-20T17:37:09.038Z,135
2016-06-20T17:37:19.679Z,135
2016-06-20T17:37:29.036Z,140.63
2016-06-20T17:37:39.061Z,146.25
2016-06-20T17:37:49.697Z,146.25
2016-06-20T17:37:59.065Z,146.25
2016-06-20T17:38:09.713Z,151.88
2016-06-20T17:38:19.721Z,151.88
2016-06-20T17:38:29.710Z,157.5
2016-06-20T17:38:39.720Z,157.5
2016-06-20T17:38:49.094Z,157.5
2016-06-20T17:38:59.739Z,157.5
2016-06-20T17:39:09.092Z,157.5
2016-06-20T17:39:19.112Z,157.5
2016-06-20T17:39:28.501Z,157.5
2016-06-20T17:39:39.110Z,157.5
2016-06-20T17:39:49.777Z,157.5
2016-06-20T17:39:58.503Z,151.88
2016-06-20T17:40:09.778Z,151.88
2016-06-20T17:40:19.782Z,146.25
2016-06-20T17:40:29.162Z,146.25
2016-06-20T17:40:39.794Z,146.25
2016-06-20T17:40:49.791Z,146.25
2016-06-20T17:40:59.804Z,140.63
2016-06-20T17:41:09.164Z,140.63
2016-06-20T17:41:19.808Z,140.63
2016-06-20T17:41:29.182Z,140.63
2016-06-20T17:41:39.819Z,140.63
2016-06-20T17:41:49.222Z,140.63
2016-06-20T17:41:59.213Z,140.63
2016-06-20T17:42:09.859Z,140.63
2016-06-20T17:42:19.831Z,140.63
2016-06-20T17:42:29.855Z,140.63
2016-06-20T17:42:39.235Z,135
2016-06-20T17:42:49.908Z,135
2016-06-20T17:42:59.230Z,135
2016-06-20T17:43:09.871Z,135
2016-06-20T17:43:19.244Z,129.38
2016-06-20T17:43:29.244Z,135
2016-06-20T17:43:38.615Z,129.38
2016-06-20T17:43:49.898Z,123.75
2016-06-20T17:43:59.927Z,123.75
2016-06-20T17:44:09.902Z,118.13
2016-06-20T17:44:18.634Z,112.5
2016-06-20T17:44:28.641Z,112.5
2016-06-20T17:44:39.297Z,112.5
2016-06-20T17:44:49.918Z,112.5
2016-06-20T17:44:59.927Z,112.5
2016-06-20T17:45:09.303Z,106.88
2016-06-20T17:45:19.957Z,101.25
2016-06-20T17:45:29.957Z,101.25
2016-06-20T17:45:39.333Z,95.63
2016-06-20T17:45:48.708Z,95.63
2016-06-20T17:45:59.345Z,90
2016-06-20T17:46:09.968Z,90
2016-06-20T17:46:19.982Z,90
2016-06-20T17:46:29.971Z,84.38
2016-06-20T17:46:39.349Z,84.38
2016-06-20T17:46:49.361Z,84.38
2016-06-20T17:46:58.733Z,84.38
2016-06-20T17:47:08.746Z,78.75
2016-06-20T17:47:19.363Z,78.75
2016-06-20T17:47:29.391Z,78.75
2016-06-20T17:47:39.394Z,78.75
2016-06-20T17:47:48.778Z,78.75
2016-06-20T17:47:59.408Z,78.75
2016-06-20T17:48:09.407Z,78.75
2016-06-20T17:48:20.041Z,84.38
2016-06-20T17:48:29.422Z,84.38
2016-06-20T17:48:40.092Z,90
2016-06-20T17:48:49.442Z,90
2016-06-20T17:49:00.082Z,95.63
2016-06-20T17:49:09.446Z,95.63
2016-06-20T17:49:19.442Z,95.63
2016-06-20T17:49:29.455Z,95.63
2016-06-20T17:49:39.451Z,95.63
2016-06-20T17:49:49.462Z,95.63
2016-06-20T17:50:00.117Z,95.63
2016-06-20T17:50:09.512Z,95.63
2016-06-20T17:50:20.091Z,101.25
2016-06-20T17:50:30.110Z,101.25
2016-06-20T17:50:40.121Z,101.25
2016-06-20T17:50:50.135Z,106.88
2016-06-20T17:50:59.485Z,106.88
2016-06-20T17:51:09.500Z,101.25
2016-06-20T17:51:19.496Z,106.88
2016-06-20T17:51:29.504Z,106.88
2016-06-20T17:51:40.150Z,101.25
2016-06-20T17:51:49.549Z,101.25
2016-06-20T17:52:00.166Z,101.25
2016-06-20T17:52:10.175Z,101.25
2016-06-20T17:52:20.166Z,101.25
2016-06-20T17:52:29.539Z,95.63
2016-06-20T17:52:40.177Z,95.63
2016-06-20T17:52:49.559Z,95.63
2016-06-20T17:53:00.224Z,95.63
2016-06-20T17:53:10.190Z,90
2016-06-20T17:53:19.559Z,90
2016-06-20T17:53:29.575Z,90
2016-06-20T17:53:39.575Z,90
2016-06-20T17:53:48.954Z,84.38
2016-06-20T17:53:59.594Z,84.38
2016-06-20T17:54:09.583Z,84.38
2016-06-20T17:54:19.617Z,84.38
2016-06-20T17:54:30.239Z,78.75
2016-06-20T17:54:39.621Z,78.75
2016-06-20T17:54:50.251Z,78.75
2016-06-20T17:54:59.627Z,78.75
2016-06-20T17:55:10.293Z,78.75
2016-06-20T17:55:19.627Z,78.75
2016-06-20T17:55:30.279Z,73.13
2016-06-20T17:55:39.649Z,73.13
2016-06-20T17:55:50.298Z,73.13
2016-06-20T17:56:00.303Z,73.13
2016-06-20T17:56:09.021Z,73.13
2016-06-20T17:56:20.303Z,73.13
2016-06-20T17:56:29.699Z,73.13
2016-06-20T17:56:39.699Z,73.13
2016-06-20T17:56:50.317Z,73.13
2016-06-20T17:56:59.698Z,73.13
2016-06-20T17:57:10.341Z,67.5
2016-06-20T17:57:20.357Z,67.5
2016-06-20T17:57:29.726Z,67.5
2016-06-20T17:57:39.718Z,67.5
2016-06-20T17:57:50.379Z,61.88
2016-06-20T17:58:00.361Z,61.88
2016-06-20T17:58:10.365Z,61.88
2016-06-20T17:58:19.736Z,61.88
2016-06-20T17:58:29.744Z,61.88
2016-06-20T17:58:39.118Z,61.88
2016-06-20T17:58:50.399Z,61.88
2016-06-20T17:58:59.769Z,61.88
2016-06-20T17:59:10.406Z,61.88
2016-06-20T17:59:19.778Z,61.88
2016-06-20T17:59:29.797Z,61.88
2016-06-20T17:59:39.782Z,61.88
2016-06-20T17:59:49.804Z,61.88
2016-06-20T18:00:00.431Z,67.5
2016-06-20T18:00:10.449Z,67.5
2016-06-20T18:00:20.433Z,67.5
2016-06-20T18:00:29.803Z,67.5
2016-06-20T18:00:40.488Z,67.5
2016-06-20T18:00:49.186Z,67.5
2016-06-20T18:00:59.840Z,67.5
2016-06-20T18:01:09.826Z,67.5
2016-06-20T18:01:20.485Z,67.5
2016-06-20T18:01:30.479Z,67.5
2016-06-20T18:01:39.198Z,73.13
2016-06-20T18:01:50.488Z,73.13
2016-06-20T18:02:00.501Z,67.5
2016-06-20T18:02:10.500Z,67.5
2016-06-20T18:02:19.866Z,73.13
2016-06-20T18:02:30.511Z,73.13
2016-06-20T18:02:39.242Z,73.13
2016-06-20T18:02:49.890Z,73.13
2016-06-20T18:03:00.522Z,73.13
2016-06-20T18:03:10.532Z,73.13
2016-06-20T18:03:19.891Z,73.13
2016-06-20T18:03:29.897Z,67.5
2016-06-20T18:03:39.914Z,61.88
2016-06-20T18:03:49.913Z,61.88
2016-06-20T18:03:59.931Z,61.88
2016-06-20T18:04:09.951Z,61.88
2016-06-20T18:04:20.590Z,61.88
2016-06-20T18:04:30.577Z,61.88
2016-06-20T18:04:39.950Z,61.88
2016-06-20T18:04:50.638Z,61.88
2016-06-20T18:04:59.950Z,67.5
2016-06-20T18:05:10.600Z,67.5
2016-06-20T18:05:20.599Z,78.75
2016-06-20T18:05:29.343Z,84.38
2016-06-20T18:05:40.633Z,84.38
2016-06-20T18:05:50.622Z,84.38
2016-06-20T18:06:00.618Z,84.38
2016-06-20T18:06:09.997Z,84.38
2016-06-20T18:06:20.637Z,84.38
2016-06-20T18:06:30.664Z,84.38
2016-06-20T18:06:40.667Z,84.38
2016-06-20T18:06:50.660Z,84.38
2016-06-20T18:07:00.026Z,84.38
2016-06-20T18:07:10.663Z,90
2016-06-20T18:07:20.038Z,90
2016-06-20T18:07:30.675Z,90
2016-06-20T18:07:40.036Z,84.38
2016-06-20T18:07:50.056Z,84.38
2016-06-20T18:08:00.690Z,84.38
2016-06-20T18:08:10.696Z,84.38
2016-06-20T18:08:20.071Z,84.38
2016-06-20T18:08:30.707Z,78.75
2016-06-20T18:08:40.081Z,84.38
2016-06-20T18:08:50.731Z,84.38
2016-06-20T18:09:00.740Z,84.38
2016-06-20T18:09:10.083Z,78.75
2016-06-20T18:09:20.735Z,78.75
2016-06-20T18:09:30.748Z,78.75
2016-06-20T18:09:40.747Z,78.75
2016-06-20T18:09:49.494Z,78.75
2016-06-20T18:10:00.125Z,78.75
2016-06-20T18:10:10.768Z,78.75
2016-06-20T18:10:20.762Z,78.75
2016-06-20T18:10:30.135Z,78.75
2016-06-20T18:10:40.154Z,78.75
2016-06-20T18:10:50.785Z,78.75
2016-06-20T18:11:00.798Z,78.75
2016-06-20T18:11:10.171Z,78.75
2016-06-20T18:11:20.161Z,73.13
2016-06-20T18:11:29.557Z,73.13
2016-06-20T18:11:40.185Z,73.13
2016-06-20T18:11:50.819Z,73.13
2016-06-20T18:12:00.177Z,73.13
2016-06-20T18:12:10.838Z,73.13
2016-06-20T18:12:20.838Z,78.75
2016-06-20T18:12:30.199Z,78.75
2016-06-20T18:12:40.214Z,78.75
2016-06-20T18:12:50.839Z,78.75
2016-06-20T18:13:00.848Z,78.75
2016-06-20T18:13:10.204Z,78.75
2016-06-20T18:13:20.875Z,78.75
2016-06-20T18:13:30.869Z,78.75
2016-06-20T18:13:40.869Z,73.13
2016-06-20T18:13:50.872Z,73.13
2016-06-20T18:14:00.887Z,73.13
2016-06-20T18:14:10.278Z,73.13
2016-06-20T18:14:20.890Z,67.5
2016-06-20T18:14:30.920Z,67.5
2016-06-20T18:14:40.913Z,61.88
2016-06-20T18:14:50.930Z,61.88
2016-06-20T18:15:00.910Z,61.88
2016-06-20T18:15:10.308Z,61.88
2016-06-20T18:15:20.913Z,56.25
2016-06-20T18:15:30.914Z,56.25
2016-06-20T18:15:40.929Z,56.25
2016-06-20T18:15:50.302Z,56.25
2016-06-20T18:16:00.941Z,56.25
2016-06-20T18:16:10.957Z,56.25
2016-06-20T18:16:20.955Z,56.25
2016-06-20T18:16:30.952Z,56.25
2016-06-20T18:16:40.966Z,61.88
2016-06-20T18:16:49.726Z,61.88
2016-06-20T18:17:00.985Z,61.88
2016-06-20T18:17:10.382Z,56.25
2016-06-20T18:17:20.341Z,56.25
2016-06-20T18:17:30.998Z,50.63
2016-06-20T18:17:40.376Z,50.63
2016-06-20T18:17:50.378Z,50.63
2016-06-20T18:18:00.379Z,50.63
2016-06-20T18:18:11.034Z,50.63
2016-06-20T18:18:21.048Z,50.63
2016-06-20T18:18:31.029Z,50.63
2016-06-20T18:18:40.403Z,50.63
2016-06-20T18:18:51.041Z,50.63
2016-06-20T18:19:01.058Z,56.25
2016-06-20T18:19:11.056Z,56.25
2016-06-20T18:19:21.063Z,56.25
2016-06-20T18:19:31.079Z,56.25
2016-06-20T18:19:41.080Z,56.25
2016-06-20T18:19:50.445Z,56.25
2016-06-20T18:20:01.095Z,56.25
2016-06-20T18:20:09.807Z,56.25
2016-06-20T18:20:19.807Z,56.25
2016-06-20T18:20:31.082Z,56.25
2016-06-20T18:20:41.103Z,56.25
2016-06-20T18:20:51.115Z,56.25
2016-06-20T18:21:01.101Z,61.88
2016-06-20T18:21:10.475Z,61.88
2016-06-20T18:21:20.474Z,61.88
2016-06-20T18:21:31.143Z,67.5
2016-06-20T18:21:41.124Z,67.5
2016-06-20T18:21:51.142Z,67.5
2016-06-20T18:22:00.511Z,67.5
2016-06-20T18:22:10.515Z,67.5
2016-06-20T18:22:20.514Z,67.5
2016-06-20T18:22:31.162Z,67.5
2016-06-20T18:22:40.516Z,67.5
2016-06-20T18:22:51.182Z,67.5
2016-06-20T18:23:01.173Z,67.5
2016-06-20T18:23:11.169Z,67.5
2016-06-20T18:23:21.172Z,67.5
2016-06-20T18:23:30.551Z,67.5
2016-06-20T18:23:41.194Z,67.5
2016-06-20T18:23:51.206Z,67.5
2016-06-20T18:24:01.202Z,61.88
2016-06-20T18:24:11.222Z,61.88
2016-06-20T18:24:21.237Z,61.88
2016-06-20T18:24:31.221Z,67.5
2016-06-20T18:24:41.247Z,67.5
2016-06-20T18:24:51.243Z,67.5
2016-06-20T18:25:01.238Z,67.5
2016-06-20T18:25:11.243Z,73.13
2016-06-20T18:25:20.606Z,73.13
2016-06-20T18:25:31.247Z,73.13
2016-06-20T18:25:41.259Z,67.5
2016-06-20T18:25:49.988Z,67.5
2016-06-20T18:26:01.280Z,67.5
2016-06-20T18:26:11.284Z,67.5
2016-06-20T18:26:20.640Z,61.88
2016-06-20T18:26:31.272Z,61.88
2016-06-20T18:26:41.291Z,61.88
2016-06-20T18:26:51.298Z,67.5
2016-06-20T18:27:01.304Z,67.5
2016-06-20T18:27:11.290Z,67.5
2016-06-20T18:27:20.680Z,73.13
2016-06-20T18:27:31.342Z,73.13
2016-06-20T18:27:40.718Z,73.13
2016-06-20T18:27:51.331Z,78.75
2016-06-20T18:28:00.689Z,78.75
2016-06-20T18:28:11.337Z,78.75
2016-06-20T18:28:20.713Z,78.75
2016-06-20T18:28:31.363Z,73.13
2016-06-20T18:28:41.377Z,73.13
2016-06-20T18:28:50.749Z,73.13
2016-06-20T18:29:00.740Z,73.13
2016-06-20T18:29:10.743Z,73.13
2016-06-20T18:29:20.759Z,73.13
2016-06-20T18:29:31.392Z,67.5
2016-06-20T18:29:40.774Z,61.88
2016-06-20T18:29:51.408Z,61.88
2016-06-20T18:30:01.424Z,56.25
2016-06-20T18:30:10.791Z,56.25
2016-06-20T18:30:20.783Z,50.63
2016-06-20T18:30:31.427Z,50.63
2016-06-20T18:30:41.435Z,50.63
2016-06-20T18:30:50.807Z,45
2016-06-20T18:31:00.817Z,45
2016-06-20T18:31:11.442Z,39.38
2016-06-20T18:31:21.442Z,39.38
2016-06-20T18:31:30.174Z,33.75
2016-06-20T18:31:41.458Z,33.75
2016-06-20T18:31:50.845Z,33.75
2016-06-20T18:32:00.831Z,28.13
2016-06-20T18:32:10.847Z,28.13
2016-06-20T18:32:21.493Z,33.75
2016-06-20T18:32:31.485Z,33.75
2016-06-20T18:32:41.498Z,33.75
2016-06-20T18:32:50.923Z,33.75
2016-06-20T18:33:00.234Z,33.75
2016-06-20T18:33:10.248Z,39.38
2016-06-20T18:33:21.544Z,39.38
2016-06-20T18:33:31.538Z,39.38
2016-06-20T18:33:41.545Z,39.38
2016-06-20T18:33:51.529Z,39.38
2016-06-20T18:34:01.547Z,39.38
2016-06-20T18:34:11.552Z,45
2016-06-20T18:34:20.889Z,45
2016-06-20T18:34:31.569Z,45
2016-06-20T18:34:41.565Z,45
2016-06-20T18:34:51.560Z,45
2016-06-20T18:35:00.949Z,39.38
2016-06-20T18:35:11.573Z,39.38
2016-06-20T18:35:21.583Z,39.38
2016-06-20T18:35:31.587Z,39.38
2016-06-20T18:35:41.583Z,39.38
2016-06-20T18:35:50.973Z,39.38
2016-06-20T18:36:01.612Z,39.38
2016-06-20T18:36:10.974Z,39.38
2016-06-20T18:36:20.976Z,33.75
2016-06-20T18:36:31.609Z,33.75
2016-06-20T18:36:40.973Z,39.38
2016-06-20T18:36:51.637Z,39.38
2016-06-20T18:37:01.658Z,39.38
2016-06-20T18:37:10.387Z,39.38
2016-06-20T18:37:21.643Z,39.38
2016-06-20T18:37:31.671Z,33.75
2016-06-20T18:37:41.672Z,28.13
2016-06-20T18:37:51.686Z,28.13
2016-06-20T18:38:01.050Z,28.13
2016-06-20T18:38:11.042Z,33.75
2016-06-20T18:38:21.683Z,39.38
2016-06-20T18:38:31.678Z,45
2016-06-20T18:38:41.683Z,45
2016-06-20T18:38:51.064Z,45
2016-06-20T18:39:01.694Z,45
2016-06-20T18:39:11.079Z,45
2016-06-20T18:39:21.064Z,45
2016-06-20T18:39:31.077Z,45
2016-06-20T18:39:41.077Z,45
2016-06-20T18:39:51.719Z,45
2016-06-20T18:40:01.097Z,45
2016-06-20T18:40:10.480Z,50.63
2016-06-20T18:40:21.740Z,56.25
2016-06-20T18:40:31.102Z,61.88
2016-06-20T18:40:41.749Z,61.88
2016-06-20T18:40:51.760Z,61.88
2016-06-20T18:41:01.127Z,61.88
2016-06-20T18:41:11.127Z,67.5
2016-06-20T18:41:21.768Z,61.88
2016-06-20T18:41:31.133Z,61.88
2016-06-20T18:41:41.163Z,61.88
2016-06-20T18:41:51.801Z,61.88
2016-06-20T18:42:01.179Z,61.88
2016-06-20T18:42:11.802Z,61.88
2016-06-20T18:42:21.796Z,61.88
2016-06-20T18:42:31.800Z,61.88
2016-06-20T18:42:41.177Z,61.88
2016-06-20T18:42:51.183Z,56.25
2016-06-20T18:43:01.832Z,50.63
2016-06-20T18:43:11.848Z,50.63
2016-06-20T18:43:21.670Z,50.63
2016-06-20T18:43:31.831Z,45
2016-06-20T18:43:41.220Z,45
2016-06-20T18:43:51.224Z,45
2016-06-20T18:44:01.867Z,45
2016-06-20T18:44:11.233Z,45
2016-06-20T18:44:21.861Z,45
2016-06-20T18:44:31.868Z,45
2016-06-20T18:44:41.880Z,45
2016-06-20T18:44:51.883Z,50.63
2016-06-20T18:45:01.894Z,56.25
2016-06-20T18:45:11.265Z,61.88
2016-06-20T18:45:21.924Z,61.88
2016-06-20T18:45:31.917Z,61.88
2016-06-20T18:45:41.318Z,67.5
2016-06-20T18:45:51.289Z,73.13
2016-06-20T18:46:01.938Z,67.5
2016-06-20T18:46:11.942Z,67.5
2016-06-20T18:46:21.940Z,61.88
2016-06-20T18:46:31.296Z,56.25
2016-06-20T18:46:41.308Z,56.25
2016-06-20T18:46:50.683Z,56.25
2016-06-20T18:47:01.997Z,56.25
2016-06-20T18:47:11.962Z,50.63
2016-06-20T18:47:21.956Z,50.63
2016-06-20T18:47:31.966Z,56.25
2016-06-20T18:47:41.342Z,56.25
2016-06-20T18:47:51.983Z,56.25
2016-06-20T18:48:01.350Z,61.88
2016-06-20T18:48:11.354Z,61.88
2016-06-20T18:48:21.358Z,56.25
2016-06-20T18:48:31.375Z,56.25
2016-06-20T18:48:42.027Z,56.25
2016-06-20T18:48:52.053Z,56.25
2016-06-20T18:49:02.039Z,56.25
2016-06-20T18:49:12.052Z,56.25
2016-06-20T18:49:20.742Z,56.25
2016-06-20T18:49:32.041Z,50.63
2016-06-20T18:49:42.034Z,45
2016-06-20T18:49:52.043Z,45
2016-06-20T18:50:02.078Z,39.38
2016-06-20T18:50:11.416Z,33.75
2016-06-20T18:50:22.059Z,33.75
2016-06-20T18:50:31.432Z,33.75
2016-06-20T18:50:41.424Z,33.75
2016-06-20T18:50:51.436Z,33.75
2016-06-20T18:51:02.093Z,39.38
2016-06-20T18:51:11.453Z,45
2016-06-20T18:51:22.090Z,45
2016-06-20T18:51:32.118Z,50.63
2016-06-20T18:51:42.122Z,50.63
2016-06-20T18:51:52.115Z,50.63
2016-06-20T18:52:02.138Z,45
2016-06-20T18:52:12.135Z,45
2016-06-20T18:52:22.146Z,45
2016-06-20T18:52:32.203Z,45
2016-06-20T18:52:42.142Z,45
2016-06-20T18:52:52.153Z,45
2016-06-20T18:53:02.146Z,45
2016-06-20T18:53:11.525Z,45
2016-06-20T18:53:22.156Z,50.63
2016-06-20T18:53:30.912Z,50.63
2016-06-20T18:53:42.160Z,50.63
2016-06-20T18:54:10.648Z,50.63
2016-06-20T18:54:20.637Z,50.63
2016-06-20T18:54:30.627Z,50.63
2016-06-20T18:54:40.644Z,45
2016-06-20T18:54:50.651Z,45
2016-06-20T18:55:00.660Z,39.38
2016-06-20T18:55:10.668Z,39.38
2016-06-20T18:55:20.663Z,39.38
2016-06-20T18:55:30.024Z,39.38
2016-06-20T18:55:40.676Z,45
2016-06-20T18:55:49.411Z,45
2016-06-20T18:56:00.046Z,50.63
2016-06-20T18:56:10.052Z,45
2016-06-20T18:56:20.691Z,45
2016-06-20T18:56:30.695Z,45
2016-06-20T18:56:40.699Z,39.38
2016-06-20T18:56:50.059Z,39.38
2016-06-20T18:57:00.067Z,39.38
2016-06-20T18:57:10.738Z,45
2016-06-20T18:57:20.083Z,45
2016-06-20T18:57:29.463Z,39.38
2016-06-20T18:57:40.108Z,39.38
2016-06-20T18:57:50.753Z,33.75
2016-06-20T18:58:00.098Z,33.75
2016-06-20T18:58:10.098Z,33.75
2016-06-20T18:58:20.751Z,39.38
2016-06-20T18:58:30.120Z,39.38
2016-06-20T18:58:40.147Z,33.75
2016-06-20T18:58:50.137Z,33.75
2016-06-20T18:59:00.766Z,33.75
2016-06-20T18:59:10.778Z,33.75
2016-06-20T18:59:20.781Z,28.13
2016-06-20T18:59:30.153Z,28.13
2016-06-20T18:59:40.155Z,28.13
2016-06-20T18:59:50.797Z,22.5
2016-06-20T19:00:00.808Z,22.5
2016-06-20T19:00:10.811Z,22.5
2016-06-20T19:00:19.534Z,16.88
2016-06-20T19:00:30.177Z,16.88
2016-06-20T19:00:40.182Z,16.88
2016-06-20T19:00:50.179Z,16.88
2016-06-20T19:01:00.837Z,16.88
2016-06-20T19:01:10.188Z,16.88
2016-06-20T19:01:20.230Z,16.88
2016-06-20T19:01:31.192Z,16.88
2016-06-20T19:01:40.862Z,16.88
2016-06-20T19:01:50.864Z,16.88
2016-06-20T19:02:00.868Z,16.88
2016-06-20T19:02:09.607Z,16.88
2016-06-20T19:02:20.894Z,16.88
2016-06-20T19:02:30.251Z,22.5
2016-06-20T19:02:40.249Z,22.5
2016-06-20T19:02:50.268Z,22.5
2016-06-20T19:03:00.898Z,22.5
2016-06-20T19:03:10.265Z,22.5
2016-06-20T19:03:20.916Z,22.5
2016-06-20T19:03:30.273Z,22.5
2016-06-20T19:03:40.921Z,22.5
2016-06-20T19:03:50.932Z,22.5
2016-06-20T19:04:00.309Z,22.5
2016-06-20T19:04:10.936Z,28.13
2016-06-20T19:04:20.966Z,28.13
2016-06-20T19:04:30.947Z,28.13
2016-06-20T19:04:40.336Z,28.13
2016-06-20T19:04:50.964Z,22.5
2016-06-20T19:05:00.958Z,22.5
2016-06-20T19:05:10.316Z,22.5
2016-06-20T19:05:20.975Z,22.5
2016-06-20T19:05:29.705Z,22.5
2016-06-20T19:05:40.990Z,22.5
2016-06-20T19:05:50.993Z,16.88
2016-06-20T19:06:01.008Z,16.88
2016-06-20T19:06:11.003Z,16.88
2016-06-20T19:06:21.228Z,16.88
2016-06-20T19:06:31.003Z,16.88
2016-06-20T19:06:40.370Z,16.88
2016-06-20T19:06:49.743Z,16.88
2016-06-20T19:07:00.395Z,16.88
2016-06-20T19:07:11.030Z,16.88
2016-06-20T19:07:21.030Z,16.88
2016-06-20T19:07:31.034Z,16.88
2016-06-20T19:07:40.411Z,22.5
2016-06-20T19:07:50.438Z,22.5
2016-06-20T19:08:01.058Z,22.5
2016-06-20T19:08:10.446Z,22.5
2016-06-20T19:08:20.444Z,22.5
2016-06-20T19:08:30.447Z,22.5
2016-06-20T19:08:41.067Z,22.5
2016-06-20T19:08:51.087Z,22.5
2016-06-20T19:09:01.095Z,22.5
2016-06-20T19:09:10.467Z,22.5
2016-06-20T19:09:21.101Z,22.5
2016-06-20T19:09:31.141Z,22.5
2016-06-20T19:09:41.103Z,22.5
2016-06-20T19:09:51.129Z,16.88
2016-06-20T19:10:01.125Z,16.88
2016-06-20T19:10:11.116Z,16.88
2016-06-20T19:10:21.134Z,16.88
2016-06-20T19:10:30.520Z,16.88
2016-06-20T19:10:40.748Z,16.88
2016-06-20T19:10:50.573Z,16.88
2016-06-20T19:11:00.513Z,16.88
2016-06-20T19:11:11.166Z,16.88
2016-06-20T19:11:20.516Z,22.5
2016-06-20T19:11:31.184Z,22.5
2016-06-20T19:11:40.538Z,22.5
2016-06-20T19:11:50.550Z,22.5
2016-06-20T19:12:00.545Z,16.88
2016-06-20T19:12:11.187Z,16.88
2016-06-20T19:12:20.558Z,22.5
2016-06-20T19:12:31.205Z,22.5
2016-06-20T19:12:41.202Z,22.5